Flinterborg — PHPH — position and weather

sailwx.info

Track history (hours):
 
Tides and Currents Weather Stations Pressure Air Temp Water Temp Dewpoint Dewpoint Depression Visibility Wind Speed Wind Dir Waves Ship Positions

Flinterborg

Last reported at 2014-Nov-24 11:22 UTC. Time now 2014-Nov-26 23:01 UTC.
Position N 55°39' E 015°27'.

Length 111 m; draft 6.4 m.

Type: Ship. MMSI: 245433000.

Date/timePositionNaut miles runAvg speedWind from/ knotsBaromVisibWave heightAir tempDewpointWater temp
2014-Nov-24 11:22N 55°39' E 015°27'8 9.7
2014-Nov-24 10:33N 55°35' E 015°14'1010.4
2014-Nov-24 09:33N 55°30' E 014°59'1110.8
2014-Nov-24 08:33N 55°24' E 014°43'1111.0
2014-Nov-24 07:33N 55°17' E 014°28'1010.3
2014-Nov-24 06:33N 55°08' E 014°18'65 8.0
2014-Nov-23 22:26N 54°38' E 012°37'1210.7
2014-Nov-23 21:20N 54°32' E 012°20'810.7
2014-Nov-23 20:33N 54°25' E 012°10'1010.3
2014-Nov-23 19:33N 54°25' E 011°53'2610.5
2014-Nov-23 17:05N 54°34' E 011°11'5 9.5
2014-Nov-23 16:32N 54°35' E 011°02'1110.9
2014-Nov-23 15:33N 54°34' E 010°44'1111.1
2014-Nov-23 14:33N 54°31' E 010°25'1010.3
2014-Nov-23 13:33N 54°24' E 010°12'3 3.2
2014-Nov-23 12:33N 54°22' E 010°09'6 5.9
2014-Nov-23 11:33N 54°21' E 009°59'8 8.0
2014-Nov-23 10:33N 54°21' E 009°45'7 6.5
2014-Nov-23 09:32N 54°16' E 009°37'7 6.7
2014-Nov-23 08:33N 54°11' E 009°29'5 5.1
2014-Nov-23 07:33N 54°09' E 009°22'7 7.4
2014-Nov-23 06:33N 54°02' E 009°18'8 8.2
2014-Nov-23 05:33N 53°55' E 009°11'0 0.1
2014-Nov-23 04:33N 53°55' E 009°11'0 0.0
2014-Nov-23 03:33N 53°55' E 009°11'2 2.0
2014-Nov-23 02:33N 53°53' E 009°09'6 5.6
2014-Nov-23 01:33N 53°51' E 008°60'1010.4
2014-Nov-23 00:33N 53°53' E 008°42'1010.2
2014-Nov-22 23:33N 53°58' E 008°28'1110.9
2014-Nov-22 22:33N 53°60' E 008°10'1110.8
2014-Nov-22 21:33N 53°57' E 007°52'5212.6
2014-Nov-22 17:23N 53°44' E 006°25'1012.1
2014-Nov-22 16:32N 53°41' E 006°09'1111.6
2014-Nov-22 15:33N 53°38' E 005°51'1111.2
2014-Nov-22 14:33N 53°34' E 005°33'1110.8
2014-Nov-22 13:33N 53°31' E 005°16'1110.6
2014-Nov-22 12:33N 53°27' E 004°59'1010.5
2014-Nov-22 11:33N 53°22' E 004°43'1511.3
2014-Nov-22 10:13N 53°09' E 004°31'911.4
2014-Nov-22 09:26N 53°01' E 004°23'1010.8
2014-Nov-22 08:32N 52°53' E 004°15'1010.5
2014-Nov-22 07:33N 52°44' E 004°07'1110.7
2014-Nov-22 06:32N 52°34' E 003°58'1111.2
2014-Nov-22 05:33N 52°24' E 003°53'1211.9
2014-Nov-22 04:34N 52°12' E 003°53'1111.1
2014-Nov-22 03:34N 52°01' E 003°58'1211.6
2014-Nov-22 02:33N 51°55' E 004°14'9 8.9
2014-Nov-22 01:33N 51°50' E 004°26'8 7.4
2014-Nov-22 00:28N 51°48' E 004°38'0 0.0
2014-Nov-21 23:28N 51°48' E 004°38'0 0.0
2014-Nov-21 22:15N 51°48' E 004°38'0 0.0
2014-Nov-21 21:33N 51°48' E 004°38'0 0.0
2014-Nov-21 20:27N 51°48' E 004°38'0 0.0
2014-Nov-21 19:32N 51°48' E 004°38'0 0.0
2014-Nov-21 17:25N 51°48' E 004°38'0 0.0
2014-Nov-21 16:31N 51°48' E 004°38'0 0.0
2014-Nov-21 15:30N 51°48' E 004°38'0 0.0
2014-Nov-21 13:23N 51°48' E 004°38'0 0.0
2014-Nov-21 12:29N 51°48' E 004°38'0 0.0
2014-Nov-21 11:23N 51°48' E 004°38'0 0.0
2014-Nov-21 10:28N 51°48' E 004°38'0 0.0
2014-Nov-21 09:28N 51°48' E 004°38'0 0.0
2014-Nov-21 08:09N 51°48' E 004°38'0 0.0
2014-Nov-21 07:21N 51°48' E 004°38'0 0.0
2014-Nov-21 06:33N 51°48' E 004°38'0 0.0
2014-Nov-21 05:32N 51°48' E 004°38'0 0.0
2014-Nov-21 04:11N 51°48' E 004°38'0 0.0
2014-Nov-21 03:25N 51°48' E 004°38'0 0.0
2014-Nov-21 02:31N 51°48' E 004°38'3 3.2
2014-Nov-21 01:33N 51°49' E 004°34'10 9.7
2014-Nov-21 00:34N 51°53' E 004°19'1111.0
2014-Nov-20 23:33N 51°59' E 004°04'1212.0
2014-Nov-20 22:33N 51°59' E 003°45'1313.1
2014-Nov-20 21:33N 51°54' E 003°25'1212.0
2014-Nov-20 20:33N 51°44' E 003°16'1212.2
2014-Nov-20 19:33N 51°33' E 003°25'10 9.7
2014-Nov-20 18:33N 51°26' E 003°37'1211.9
2014-Nov-20 17:33N 51°22' E 003°55'1110.4
2014-Nov-20 16:33N 51°24' E 004°11'9 8.9
2014-Nov-20 15:34N 51°16' E 004°17'0 0.0
2014-Nov-20 14:34N 51°16' E 004°17'2 1.7
2014-Nov-20 13:32N 51°15' E 004°14'0 0.0
2014-Nov-20 12:12N 51°15' E 004°14'0 0.0
2014-Nov-20 11:33N 51°15' E 004°14'0 0.0
2014-Nov-20 10:29N 51°15' E 004°14'0 0.0
2014-Nov-20 08:31N 51°15' E 004°14'0 0.0
2014-Nov-20 07:33N 51°15' E 004°14'0 0.0
2014-Nov-20 06:32N 51°15' E 004°14'0 0.0
2014-Nov-20 05:33N 51°15' E 004°14'0 0.0
2014-Nov-20 04:33N 51°15' E 004°14'0 0.0
2014-Nov-20 03:33N 51°15' E 004°14'0 0.0
2014-Nov-20 02:33N 51°15' E 004°14'0 0.0
2014-Nov-20 01:33N 51°15' E 004°14'0 0.0
2014-Nov-20 00:33N 51°15' E 004°14'0 0.0
2014-Nov-19 23:32N 51°15' E 004°14'0 0.0
2014-Nov-19 22:33N 51°15' E 004°14'0 0.0
2014-Nov-19 21:33N 51°15' E 004°14'1 1.2
2014-Nov-19 20:33N 51°16' E 004°16'1 0.9
2014-Nov-19 19:33N 51°16' E 004°17'2 1.7
2014-Nov-19 18:33N 51°17' E 004°20'3 2.6
2014-Nov-19 17:34N 51°16' E 004°24'0 0.4
2014-Nov-19 16:28N 51°15' E 004°24'0 0.0
2014-Nov-19 15:31N 51°15' E 004°24'0 0.0
2014-Nov-19 14:33N 51°15' E 004°24'0 0.0
2014-Nov-19 13:33N 51°15' E 004°24'0 0.0
2014-Nov-19 12:32N 51°15' E 004°24'0 0.0
2014-Nov-19 11:32N 51°15' E 004°24'0 0.0
2014-Nov-19 10:32N 51°15' E 004°24'0 0.0
2014-Nov-19 09:31N 51°15' E 004°24'0 0.0
2014-Nov-19 08:31N 51°15' E 004°24'0 0.0
2014-Nov-19 07:33N 51°15' E 004°24'0 0.0
2014-Nov-19 06:30N 51°15' E 004°24'0 0.0
2014-Nov-19 05:32N 51°15' E 004°24'0 0.0
2014-Nov-19 04:32N 51°15' E 004°24'0 0.0
2014-Nov-19 03:29N 51°15' E 004°24'0 0.0
2014-Nov-19 02:25N 51°15' E 004°24'0 0.0
2014-Nov-19 01:28N 51°15' E 004°24'0 0.0
2014-Nov-19 00:33N 51°15' E 004°24'0 0.0
2014-Nov-18 23:33N 51°15' E 004°24'0 0.0
2014-Nov-18 22:32N 51°15' E 004°24'0 0.0
2014-Nov-18 21:32N 51°15' E 004°24'0 0.0
2014-Nov-18 20:31N 51°15' E 004°24'0 0.0
2014-Nov-18 19:31N 51°15' E 004°24'0 0.1
2014-Nov-18 18:28N 51°15' E 004°24'0 0.0
2014-Nov-18 17:33N 51°15' E 004°24'0 0.4
2014-Nov-18 16:34N 51°15' E 004°24'3 3.3
2014-Nov-18 15:34N 51°17' E 004°20'3 2.7
2014-Nov-18 14:34N 51°18' E 004°17'6 6.3
2014-Nov-18 13:33N 51°22' E 004°09'7 7.0
2014-Nov-18 12:34N 51°26' E 003°59'8 8.2
2014-Nov-18 11:34N 51°21' E 003°50'9 9.4
2014-Nov-18 10:33N 51°26' E 003°38'9 9.3
2014-Nov-18 09:33N 51°32' E 003°26'1212.2
2014-Nov-18 08:32N 51°42' E 003°16'1111.0
2014-Nov-18 07:31N 51°53' E 003°17'10011.2
2014-Nov-17 22:33N 53°22' E 004°34'1110.9
2014-Nov-17 21:33N 53°30' E 004°48'1212.0
2014-Nov-17 20:33N 53°34' E 005°07'1312.9
2014-Nov-17 19:34N 53°38' E 005°27'1111.3
2014-Nov-17 18:33N 53°42' E 005°45'1010.5
2014-Nov-17 17:33N 53°45' E 006°02'5310.6
2014-Nov-17 12:33N 53°60' E 007°29'1111.4
2014-Nov-17 11:34N 54°02' E 007°48'1212.2
2014-Nov-17 10:33N 54°01' E 008°09'1413.9
2014-Nov-17 09:33N 53°58' E 008°32'1212.0
2014-Nov-17 08:33N 53°51' E 008°47'1110.8
2014-Nov-17 07:33N 53°53' E 009°05'4 4.3
2014-Nov-17 06:33N 53°55' E 009°11'15 6.8
2014-Nov-17 04:20N 54°09' E 009°21'7 8.6
2014-Nov-17 03:33N 54°12' E 009°32'7 7.0
2014-Nov-17 02:33N 54°17' E 009°39'8 7.7
2014-Nov-17 01:33N 54°22' E 009°49'8 7.9
2014-Nov-17 00:33N 54°22' E 010°03'3 3.5
2014-Nov-16 23:33N 54°22' E 010°09'6 5.5
2014-Nov-16 22:33N 54°27' E 010°14'1212.0
2014-Nov-16 21:33N 54°33' E 010°31'3812.6
2014-Nov-16 18:31N 54°30' E 011°37'1312.4
2014-Nov-16 17:30N 54°27' E 011°58'9211.4
2014-Nov-16 09:26N 55°13' E 014°16'1112.0
2014-Nov-16 08:32N 55°21' E 014°29'1111.6
2014-Nov-16 07:33N 55°28' E 014°44'1211.6
2014-Nov-16 06:32N 55°35' E 015°02'1111.6
2014-Nov-16 05:33N 55°41' E 015°19'2511.7
2014-Nov-16 03:26N 55°55' E 015°55'1011.7
2014-Nov-16 02:33N 55°59' E 016°12'7510.5
2014-Nov-15 19:29N 57°02' E 017°23'1111.7
2014-Nov-15 18:32N 57°13' E 017°31'  
Track history (hours):
 
Tides and Currents Weather Stations Pressure Air Temp Water Temp Dewpoint Dewpoint Depression Visibility Wind Speed Wind Dir Waves Ship Positions

Flinterborg

Last reported at 2014-Nov-24 11:22 UTC. Time now 2014-Nov-26 23:01 UTC.
Position N 55°39' E 015°27'.

Length 111 m; draft 6.4 m.

Type: Ship. MMSI: 245433000.

Date/timePositionNaut miles runAvg speedWind from/ knotsBaromVisibWave heightAir tempDewpointWater temp
2014-Nov-24 11:22N 55°39' E 015°27'8 9.7
2014-Nov-24 10:33N 55°35' E 015°14'1010.4
2014-Nov-24 09:33N 55°30' E 014°59'1110.8
2014-Nov-24 08:33N 55°24' E 014°43'1111.0
2014-Nov-24 07:33N 55°17' E 014°28'1010.3
2014-Nov-24 06:33N 55°08' E 014°18'65 8.0
2014-Nov-23 22:26N 54°38' E 012°37'1210.7
2014-Nov-23 21:20N 54°32' E 012°20'810.7
2014-Nov-23 20:33N 54°25' E 012°10'1010.3
2014-Nov-23 19:33N 54°25' E 011°53'2610.5
2014-Nov-23 17:05N 54°34' E 011°11'5 9.5
2014-Nov-23 16:32N 54°35' E 011°02'1110.9
2014-Nov-23 15:33N 54°34' E 010°44'1111.1
2014-Nov-23 14:33N 54°31' E 010°25'1010.3
2014-Nov-23 13:33N 54°24' E 010°12'3 3.2
2014-Nov-23 12:33N 54°22' E 010°09'6 5.9
2014-Nov-23 11:33N 54°21' E 009°59'8 8.0
2014-Nov-23 10:33N 54°21' E 009°45'7 6.5
2014-Nov-23 09:32N 54°16' E 009°37'7 6.7
2014-Nov-23 08:33N 54°11' E 009°29'5 5.1
2014-Nov-23 07:33N 54°09' E 009°22'7 7.4
2014-Nov-23 06:33N 54°02' E 009°18'8 8.2
2014-Nov-23 05:33N 53°55' E 009°11'0 0.1
2014-Nov-23 04:33N 53°55' E 009°11'0 0.0
2014-Nov-23 03:33N 53°55' E 009°11'2 2.0
2014-Nov-23 02:33N 53°53' E 009°09'6 5.6
2014-Nov-23 01:33N 53°51' E 008°60'1010.4
2014-Nov-23 00:33N 53°53' E 008°42'1010.2
2014-Nov-22 23:33N 53°58' E 008°28'1110.9
2014-Nov-22 22:33N 53°60' E 008°10'1110.8
2014-Nov-22 21:33N 53°57' E 007°52'5212.6
2014-Nov-22 17:23N 53°44' E 006°25'1012.1
2014-Nov-22 16:32N 53°41' E 006°09'1111.6
2014-Nov-22 15:33N 53°38' E 005°51'1111.2
2014-Nov-22 14:33N 53°34' E 005°33'1110.8
2014-Nov-22 13:33N 53°31' E 005°16'1110.6
2014-Nov-22 12:33N 53°27' E 004°59'1010.5
2014-Nov-22 11:33N 53°22' E 004°43'1511.3
2014-Nov-22 10:13N 53°09' E 004°31'911.4
2014-Nov-22 09:26N 53°01' E 004°23'1010.8
2014-Nov-22 08:32N 52°53' E 004°15'1010.5
2014-Nov-22 07:33N 52°44' E 004°07'1110.7
2014-Nov-22 06:32N 52°34' E 003°58'1111.2
2014-Nov-22 05:33N 52°24' E 003°53'1211.9
2014-Nov-22 04:34N 52°12' E 003°53'1111.1
2014-Nov-22 03:34N 52°01' E 003°58'1211.6
2014-Nov-22 02:33N 51°55' E 004°14'9 8.9
2014-Nov-22 01:33N 51°50' E 004°26'8 7.4
2014-Nov-22 00:28N 51°48' E 004°38'0 0.0
2014-Nov-21 23:28N 51°48' E 004°38'0 0.0
2014-Nov-21 22:15N 51°48' E 004°38'0 0.0
2014-Nov-21 21:33N 51°48' E 004°38'0 0.0
2014-Nov-21 20:27N 51°48' E 004°38'0 0.0
2014-Nov-21 19:32N 51°48' E 004°38'0 0.0
2014-Nov-21 17:25N 51°48' E 004°38'0 0.0
2014-Nov-21 16:31N 51°48' E 004°38'0 0.0
2014-Nov-21 15:30N 51°48' E 004°38'0 0.0
2014-Nov-21 13:23N 51°48' E 004°38'0 0.0
2014-Nov-21 12:29N 51°48' E 004°38'0 0.0
2014-Nov-21 11:23N 51°48' E 004°38'0 0.0
2014-Nov-21 10:28N 51°48' E 004°38'0 0.0
2014-Nov-21 09:28N 51°48' E 004°38'0 0.0
2014-Nov-21 08:09N 51°48' E 004°38'0 0.0
2014-Nov-21 07:21N 51°48' E 004°38'0 0.0
2014-Nov-21 06:33N 51°48' E 004°38'0 0.0
2014-Nov-21 05:32N 51°48' E 004°38'0 0.0
2014-Nov-21 04:11N 51°48' E 004°38'0 0.0
2014-Nov-21 03:25N 51°48' E 004°38'0 0.0
2014-Nov-21 02:31N 51°48' E 004°38'3 3.2
2014-Nov-21 01:33N 51°49' E 004°34'10 9.7
2014-Nov-21 00:34N 51°53' E 004°19'1111.0
2014-Nov-20 23:33N 51°59' E 004°04'1212.0
2014-Nov-20 22:33N 51°59' E 003°45'1313.1
2014-Nov-20 21:33N 51°54' E 003°25'1212.0
2014-Nov-20 20:33N 51°44' E 003°16'1212.2
2014-Nov-20 19:33N 51°33' E 003°25'10 9.7
2014-Nov-20 18:33N 51°26' E 003°37'1211.9
2014-Nov-20 17:33N 51°22' E 003°55'1110.4
2014-Nov-20 16:33N 51°24' E 004°11'9 8.9
2014-Nov-20 15:34N 51°16' E 004°17'0 0.0
2014-Nov-20 14:34N 51°16' E 004°17'2 1.7
2014-Nov-20 13:32N 51°15' E 004°14'0 0.0
2014-Nov-20 12:12N 51°15' E 004°14'0 0.0
2014-Nov-20 11:33N 51°15' E 004°14'0 0.0
2014-Nov-20 10:29N 51°15' E 004°14'0 0.0
2014-Nov-20 08:31N 51°15' E 004°14'0 0.0
2014-Nov-20 07:33N 51°15' E 004°14'0 0.0
2014-Nov-20 06:32N 51°15' E 004°14'0 0.0
2014-Nov-20 05:33N 51°15' E 004°14'0 0.0
2014-Nov-20 04:33N 51°15' E 004°14'0 0.0
2014-Nov-20 03:33N 51°15' E 004°14'0 0.0
2014-Nov-20 02:33N 51°15' E 004°14'0 0.0
2014-Nov-20 01:33N 51°15' E 004°14'0 0.0
2014-Nov-20 00:33N 51°15' E 004°14'0 0.0
2014-Nov-19 23:32N 51°15' E 004°14'0 0.0
2014-Nov-19 22:33N 51°15' E 004°14'0 0.0
2014-Nov-19 21:33N 51°15' E 004°14'1 1.2
2014-Nov-19 20:33N 51°16' E 004°16'1 0.9
2014-Nov-19 19:33N 51°16' E 004°17'2 1.7
2014-Nov-19 18:33N 51°17' E 004°20'3 2.6
2014-Nov-19 17:34N 51°16' E 004°24'0 0.4
2014-Nov-19 16:28N 51°15' E 004°24'0 0.0
2014-Nov-19 15:31N 51°15' E 004°24'0 0.0
2014-Nov-19 14:33N 51°15' E 004°24'0 0.0
2014-Nov-19 13:33N 51°15' E 004°24'0 0.0
2014-Nov-19 12:32N 51°15' E 004°24'0 0.0
2014-Nov-19 11:32N 51°15' E 004°24'0 0.0
2014-Nov-19 10:32N 51°15' E 004°24'0 0.0
2014-Nov-19 09:31N 51°15' E 004°24'0 0.0
2014-Nov-19 08:31N 51°15' E 004°24'0 0.0
2014-Nov-19 07:33N 51°15' E 004°24'0 0.0
2014-Nov-19 06:30N 51°15' E 004°24'0 0.0
2014-Nov-19 05:32N 51°15' E 004°24'0 0.0
2014-Nov-19 04:32N 51°15' E 004°24'0 0.0
2014-Nov-19 03:29N 51°15' E 004°24'0 0.0
2014-Nov-19 02:25N 51°15' E 004°24'0 0.0
2014-Nov-19 01:28N 51°15' E 004°24'0 0.0
2014-Nov-19 00:33N 51°15' E 004°24'0 0.0
2014-Nov-18 23:33N 51°15' E 004°24'0 0.0
2014-Nov-18 22:32N 51°15' E 004°24'0 0.0
2014-Nov-18 21:32N 51°15' E 004°24'0 0.0
2014-Nov-18 20:31N 51°15' E 004°24'0 0.0
2014-Nov-18 19:31N 51°15' E 004°24'0 0.1
2014-Nov-18 18:28N 51°15' E 004°24'0 0.0
2014-Nov-18 17:33N 51°15' E 004°24'0 0.4
2014-Nov-18 16:34N 51°15' E 004°24'3 3.3
2014-Nov-18 15:34N 51°17' E 004°20'3 2.7
2014-Nov-18 14:34N 51°18' E 004°17'6 6.3
2014-Nov-18 13:33N 51°22' E 004°09'7 7.0
2014-Nov-18 12:34N 51°26' E 003°59'8 8.2
2014-Nov-18 11:34N 51°21' E 003°50'9 9.4
2014-Nov-18 10:33N 51°26' E 003°38'9 9.3
2014-Nov-18 09:33N 51°32' E 003°26'1212.2
2014-Nov-18 08:32N 51°42' E 003°16'1111.0
2014-Nov-18 07:31N 51°53' E 003°17'10011.2
2014-Nov-17 22:33N 53°22' E 004°34'1110.9
2014-Nov-17 21:33N 53°30' E 004°48'1212.0
2014-Nov-17 20:33N 53°34' E 005°07'1312.9
2014-Nov-17 19:34N 53°38' E 005°27'1111.3
2014-Nov-17 18:33N 53°42' E 005°45'1010.5
2014-Nov-17 17:33N 53°45' E 006°02'5310.6
2014-Nov-17 12:33N 53°60' E 007°29'1111.4
2014-Nov-17 11:34N 54°02' E 007°48'1212.2
2014-Nov-17 10:33N 54°01' E 008°09'1413.9
2014-Nov-17 09:33N 53°58' E 008°32'1212.0
2014-Nov-17 08:33N 53°51' E 008°47'1110.8
2014-Nov-17 07:33N 53°53' E 009°05'4 4.3
2014-Nov-17 06:33N 53°55' E 009°11'15 6.8
2014-Nov-17 04:20N 54°09' E 009°21'7 8.6
2014-Nov-17 03:33N 54°12' E 009°32'7 7.0
2014-Nov-17 02:33N 54°17' E 009°39'8 7.7
2014-Nov-17 01:33N 54°22' E 009°49'8 7.9
2014-Nov-17 00:33N 54°22' E 010°03'3 3.5
2014-Nov-16 23:33N 54°22' E 010°09'6 5.5
2014-Nov-16 22:33N 54°27' E 010°14'1212.0
2014-Nov-16 21:33N 54°33' E 010°31'3812.6
2014-Nov-16 18:31N 54°30' E 011°37'1312.4
2014-Nov-16 17:30N 54°27' E 011°58'9211.4
2014-Nov-16 09:26N 55°13' E 014°16'1112.0
2014-Nov-16 08:32N 55°21' E 014°29'1111.6
2014-Nov-16 07:33N 55°28' E 014°44'1211.6
2014-Nov-16 06:32N 55°35' E 015°02'1111.6
2014-Nov-16 05:33N 55°41' E 015°19'2511.7
2014-Nov-16 03:26N 55°55' E 015°55'1011.7
2014-Nov-16 02:33N 55°59' E 016°12'7510.5
2014-Nov-15 19:29N 57°02' E 017°23'1111.7
2014-Nov-15 18:32N 57°13' E 017°31'  

Dump ship's entire track history